Time;durP1;ratioP1;P1;durP2;ratioP2;P2;SDS_P1;SDS_P2;PMS_P1;PMS_P2;Temp;Humidity;BMP_temperature;BMP_pressure;BME280_temperature;BME280_humidity;BME280_pressure;Samples;Min_cycle;Max_cycle;Signal;HPM_P1;HPM_P2
2023/12/11 00:00:32;;;;;;;14.52;5.47;;;10.50;99.90;;;;;;5135669;27;20693;-71
2023/12/11 00:02:58;;;;;;;15.00;5.50;;;10.50;99.90;;;;;;5135928;27;20676;-71
2023/12/11 00:05:24;;;;;;;16.52;5.13;;;10.50;99.90;;;;;;5136805;27;20171;-72
2023/12/11 00:07:50;;;;;;;17.63;6.40;;;10.40;99.90;;;;;;5136425;27;20214;-70
2023/12/11 00:10:16;;;;;;;13.55;5.55;;;10.50;99.90;;;;;;5121647;27;20177;-72
2023/12/11 00:12:42;;;;;;;19.40;5.90;;;10.50;99.90;;;;;;5116309;28;20233;-70
2023/12/11 00:15:10;;;;;;;18.70;6.05;;;10.40;99.90;;;;;;5116192;28;20167;-71
2023/12/11 00:17:36;;;;;;;14.88;6.05;;;10.40;99.90;;;;;;5115655;28;20180;-71
2023/12/11 00:20:02;;;;;;;15.68;6.18;;;10.40;99.90;;;;;;5115860;28;20176;-70
2023/12/11 00:22:28;;;;;;;15.30;5.90;;;10.40;99.90;;;;;;5098040;28;20662;-70
2023/12/11 00:24:54;;;;;;;25.15;6.47;;;10.40;99.90;;;;;;5116265;28;20200;-70
2023/12/11 00:27:20;;;;;;;17.50;5.65;;;10.40;99.90;;;;;;5116553;28;20546;-70
2023/12/11 00:29:46;;;;;;;19.80;5.97;;;10.40;99.90;;;;;;5097679;28;20168;-70
2023/12/11 00:32:12;;;;;;;19.38;6.63;;;10.30;99.90;;;;;;5116205;28;20179;-71
2023/12/11 00:34:37;;;;;;;17.55;6.25;;;10.30;99.90;;;;;;5115995;28;20256;-71
2023/12/11 00:37:03;;;;;;;16.88;5.60;;;10.30;99.90;;;;;;5096915;28;20284;-71
2023/12/11 00:39:29;;;;;;;16.83;6.38;;;10.40;99.90;;;;;;5115491;28;20180;-70
2023/12/11 00:41:55;;;;;;;20.38;6.32;;;10.30;99.90;;;;;;5115549;28;20200;-70
2023/12/11 00:44:21;;;;;;;22.13;6.95;;;10.30;99.90;;;;;;5097171;28;20555;-72
2023/12/11 00:46:47;;;;;;;26.40;7.63;;;10.30;99.90;;;;;;5115526;28;20253;-70
2023/12/11 00:49:12;;;;;;;17.13;5.93;;;10.30;99.90;;;;;;5115271;28;20180;-71
2023/12/11 00:51:38;;;;;;;19.13;7.20;;;10.30;99.90;;;;;;5115004;28;20164;-70
2023/12/11 00:54:04;;;;;;;20.65;6.55;;;10.20;99.90;;;;;;5104284;27;20175;-70
2023/12/11 00:56:30;;;;;;;18.30;6.00;;;10.20;99.90;;;;;;5135681;27;20263;-71
2023/12/11 00:58:56;;;;;;;22.70;6.43;;;10.10;99.90;;;;;;5135996;27;20191;-70
2023/12/11 01:01:21;;;;;;;19.42;6.13;;;10.10;99.90;;;;;;5135738;27;20424;-71
2023/12/11 01:03:47;;;;;;;23.48;6.88;;;10.10;99.90;;;;;;5135418;27;20172;-71
2023/12/11 01:06:13;;;;;;;20.07;6.50;;;10.00;99.90;;;;;;5134865;27;20168;-72
2023/12/11 01:08:39;;;;;;;24.35;6.72;;;10.00;99.90;;;;;;5132769;27;20186;-70
2023/12/11 01:11:06;;;;;;;23.35;7.22;;;9.90;99.90;;;;;;5114790;28;20177;-71
2023/12/11 01:13:32;;;;;;;22.73;6.87;;;9.90;99.90;;;;;;5115413;28;20258;-72
2023/12/11 01:15:58;;;;;;;25.73;7.40;;;9.80;99.90;;;;;;5096701;28;20553;-72
2023/12/11 01:18:25;;;;;;;28.45;7.40;;;9.80;99.90;;;;;;5114620;28;20192;-72
2023/12/11 01:20:52;;;;;;;29.33;6.70;;;9.70;99.90;;;;;;5114447;28;20253;-71
2023/12/11 01:23:18;;;;;;;21.83;6.95;;;9.70;99.90;;;;;;5114509;28;20570;-72
2023/12/11 01:25:44;;;;;;;26.67;6.93;;;9.80;99.90;;;;;;5114703;28;20187;-71
2023/12/11 01:28:09;;;;;;;28.10;6.97;;;9.80;99.90;;;;;;5114425;28;20678;-70
2023/12/11 01:30:36;;;;;;;29.00;7.72;;;9.80;99.90;;;;;;5096546;28;20177;-71
2023/12/11 01:33:05;;;;;;;20.77;6.55;;;9.80;99.90;;;;;;5114406;28;20179;-71
2023/12/11 01:35:33;;;;;;;27.83;7.68;;;9.90;99.90;;;;;;5113908;28;20172;-71
2023/12/11 01:38:00;;;;;;;22.90;6.53;;;9.90;99.90;;;;;;5114409;28;20196;-71
2023/12/11 01:40:26;;;;;;;23.77;7.20;;;9.90;99.90;;;;;;5095679;28;20212;-71
2023/12/11 01:42:52;;;;;;;26.50;7.90;;;9.90;99.90;;;;;;5095916;28;20173;-71
2023/12/11 01:45:18;;;;;;;19.85;5.75;;;9.90;99.90;;;;;;5113924;28;20238;-71
2023/12/11 01:47:44;;;;;;;28.70;8.15;;;9.90;99.90;;;;;;5113982;28;20200;-71
2023/12/11 01:50:10;;;;;;;21.23;7.60;;;10.00;99.90;;;;;;5114132;28;20217;-71
2023/12/11 01:52:37;;;;;;;25.25;6.93;;;10.00;99.90;;;;;;5095717;28;20219;-72
2023/12/11 01:55:06;;;;;;;25.30;8.07;;;10.10;99.90;;;;;;5127754;27;20172;-72
2023/12/11 01:57:32;;;;;;;24.60;7.38;;;10.10;99.90;;;;;;5134812;27;20249;-70
2023/12/11 01:59:59;;;;;;;20.50;7.00;;;10.10;99.90;;;;;;5134904;27;20164;-71
2023/12/11 02:02:25;;;;;;;24.08;7.68;;;10.10;99.90;;;;;;5134270;27;20195;-71
2023/12/11 02:04:53;;;;;;;24.08;7.30;;;10.10;99.90;;;;;;5132994;27;20290;-71
2023/12/11 02:07:19;;;;;;;25.73;7.90;;;10.10;99.90;;;;;;5134042;27;20561;-71
2023/12/11 02:09:45;;;;;;;26.55;7.45;;;10.10;99.90;;;;;;5122490;27;20176;-71
2023/12/11 02:12:11;;;;;;;25.70;7.43;;;10.10;99.90;;;;;;5114156;28;20169;-71
2023/12/11 02:14:37;;;;;;;24.02;6.90;;;10.10;99.90;;;;;;5113614;28;20173;-71
2023/12/11 02:17:03;;;;;;;22.52;7.35;;;10.10;99.90;;;;;;5113861;28;20241;-71
2023/12/11 02:19:29;;;;;;;19.70;7.20;;;10.00;99.90;;;;;;5095243;28;20203;-71
2023/12/11 02:21:55;;;;;;;31.27;8.87;;;9.90;99.90;;;;;;5113290;28;20199;-71
2023/12/11 02:24:26;;;;;;;25.37;7.83;;;9.90;99.90;;;;;;5095146;28;20260;-71
2023/12/11 02:26:52;;;;;;;26.48;7.47;;;9.90;99.90;;;;;;5113381;28;20161;-72
2023/12/11 02:29:19;;;;;;;22.42;7.75;;;9.90;99.90;;;;;;5113605;28;20528;-70
2023/12/11 02:31:45;;;;;;;22.53;7.23;;;9.90;99.90;;;;;;5095148;28;20172;-71
2023/12/11 02:34:11;;;;;;;33.47;7.78;;;10.00;99.90;;;;;;5113320;28;20666;-71
2023/12/11 02:36:37;;;;;;;27.33;6.53;;;10.00;99.90;;;;;;5112923;28;20177;-71
2023/12/11 02:39:03;;;;;;;25.65;6.80;;;10.10;99.90;;;;;;5113396;28;20188;-71
2023/12/11 02:41:29;;;;;;;22.13;6.57;;;10.00;99.90;;;;;;5113153;28;20222;-71
2023/12/11 02:43:54;;;;;;;22.02;7.47;;;10.00;99.90;;;;;;5113431;28;20169;-72
2023/12/11 02:46:20;;;;;;;26.02;7.53;;;10.00;99.90;;;;;;5113065;28;20667;-71
2023/12/11 02:48:46;;;;;;;27.20;7.63;;;10.00;99.90;;;;;;5113143;28;20566;-71
2023/12/11 02:51:12;;;;;;;21.75;6.82;;;10.00;99.90;;;;;;5094675;28;20308;-71
2023/12/11 02:53:38;;;;;;;24.25;7.65;;;10.00;99.90;;;;;;5115103;28;20248;-71
2023/12/11 02:56:04;;;;;;;32.03;6.73;;;10.00;99.90;;;;;;5134090;27;20204;-71
2023/12/11 02:58:30;;;;;;;30.02;7.35;;;9.90;99.90;;;;;;5133635;27;20787;-71
2023/12/11 03:00:55;;;;;;;24.02;6.85;;;9.80;99.90;;;;;;5132403;28;20283;-71
2023/12/11 03:03:21;;;;;;;26.92;6.82;;;9.80;99.90;;;;;;5133770;27;20217;-71
2023/12/11 03:05:47;;;;;;;27.67;7.35;;;9.80;99.90;;;;;;5133490;27;20638;-71
2023/12/11 03:08:13;;;;;;;24.80;7.33;;;9.90;99.90;;;;;;5133637;27;20187;-70
2023/12/11 03:10:39;;;;;;;21.73;6.57;;;9.90;99.90;;;;;;5096832;28;20184;-71
2023/12/11 03:13:04;;;;;;;28.00;6.90;;;9.90;99.90;;;;;;5113198;28;20197;-71
2023/12/11 03:15:31;;;;;;;23.38;7.30;;;9.90;99.90;;;;;;5112968;28;20654;-72
2023/12/11 03:17:57;;;;;;;28.23;7.28;;;9.90;99.90;;;;;;5094692;28;20197;-71
2023/12/11 03:20:23;;;;;;;28.42;7.03;;;9.80;99.90;;;;;;5113166;28;20177;-72
2023/12/11 03:22:49;;;;;;;24.92;7.93;;;9.80;99.90;;;;;;5112787;28;20704;-71
2023/12/11 03:25:15;;;;;;;23.50;7.27;;;9.80;99.90;;;;;;5094650;28;20177;-70
2023/12/11 03:27:40;;;;;;;22.40;7.67;;;9.80;99.90;;;;;;5113698;28;20718;-71
2023/12/11 03:30:07;;;;;;;29.15;7.15;;;9.90;99.90;;;;;;5116668;28;20593;-72
2023/12/11 03:32:33;;;;;;;21.67;6.77;;;9.90;99.90;;;;;;5098295;28;20176;-72
2023/12/11 03:34:58;;;;;;;21.87;6.87;;;9.80;99.90;;;;;;5116570;28;20168;-72
2023/12/11 03:37:24;;;;;;;24.05;8.23;;;9.80;99.90;;;;;;5097972;28;20192;-72
2023/12/11 03:39:50;;;;;;;25.63;6.87;;;9.80;99.90;;;;;;5116422;28;20553;-72
2023/12/11 03:42:16;;;;;;;19.10;6.88;;;9.70;99.90;;;;;;5116379;28;20283;-72
2023/12/11 03:44:42;;;;;;;24.27;7.15;;;9.70;99.90;;;;;;5116672;28;20179;-70
2023/12/11 03:47:07;;;;;;;25.60;7.28;;;9.60;99.90;;;;;;5098094;28;20208;-72
2023/12/11 03:49:33;;;;;;;24.23;6.70;;;9.70;99.90;;;;;;5097935;28;20177;-71
2023/12/11 03:51:59;;;;;;;17.70;6.50;;;9.70;99.90;;;;;;5115991;28;20651;-71
2023/12/11 03:54:25;;;;;;;21.17;7.00;;;9.70;99.90;;;;;;5124549;27;20174;-71
2023/12/11 03:56:51;;;;;;;26.40;7.13;;;9.80;99.90;;;;;;5135484;27;20182;-71
2023/12/11 03:59:16;;;;;;;27.20;7.47;;;9.80;99.90;;;;;;5136654;27;20176;-71
2023/12/11 04:01:42;;;;;;;19.10;6.95;;;9.90;99.90;;;;;;5135259;27;20204;-72
2023/12/11 04:04:08;;;;;;;18.23;6.60;;;9.90;99.90;;;;;;5135320;27;20194;-72
2023/12/11 04:06:35;;;;;;;38.90;8.40;;;9.90;99.90;;;;;;5136313;27;20168;-68
2023/12/11 04:09:00;;;;;;;24.33;6.73;;;9.90;99.90;;;;;;5131163;27;20736;-71
2023/12/11 04:11:26;;;;;;;18.05;6.40;;;9.80;99.90;;;;;;5116202;28;20164;-71
2023/12/11 04:13:52;;;;;;;20.47;5.93;;;9.80;99.90;;;;;;5097560;28;20204;-71
2023/12/11 04:16:18;;;;;;;23.67;6.10;;;9.80;99.90;;;;;;5115783;28;20156;-70
2023/12/11 04:18:44;;;;;;;18.00;6.53;;;9.80;99.90;;;;;;5115672;28;20192;-71
2023/12/11 04:21:09;;;;;;;20.35;7.20;;;9.80;99.90;;;;;;5097103;28;20556;-71
2023/12/11 04:23:35;;;;;;;23.25;6.35;;;9.70;99.90;;;;;;5115661;28;20180;-71
2023/12/11 04:26:01;;;;;;;28.23;6.90;;;9.60;99.90;;;;;;5115598;28;20168;-69
2023/12/11 04:28:27;;;;;;;27.33;8.37;;;9.60;99.90;;;;;;5115505;28;20192;-72
2023/12/11 04:30:54;;;;;;;22.87;7.57;;;9.60;99.90;;;;;;5115474;28;20169;-72
2023/12/11 04:33:20;;;;;;;17.40;7.07;;;9.60;99.90;;;;;;5116113;28;20659;-69
2023/12/11 04:35:46;;;;;;;21.05;7.03;;;9.60;99.90;;;;;;5097068;28;20165;-73
2023/12/11 04:38:14;;;;;;;19.52;6.93;;;9.60;99.90;;;;;;5115066;28;20547;-71
2023/12/11 04:40:40;;;;;;;21.83;6.68;;;9.60;99.90;;;;;;5095817;28;20225;-73
2023/12/11 04:43:06;;;;;;;28.57;7.87;;;9.70;99.90;;;;;;5096989;28;20166;-73
2023/12/11 04:45:32;;;;;;;18.43;6.07;;;9.70;99.90;;;;;;5115395;28;20313;-71
2023/12/11 04:47:58;;;;;;;17.77;6.32;;;9.60;99.90;;;;;;5115107;28;20242;-73
2023/12/11 04:50:24;;;;;;;20.60;7.03;;;9.60;99.90;;;;;;5113333;28;20172;-72
2023/12/11 04:52:49;;;;;;;21.08;6.95;;;9.60;99.90;;;;;;5114450;28;20194;-72
2023/12/11 04:55:15;;;;;;;26.60;7.53;;;9.60;99.90;;;;;;5114981;28;20172;-72
2023/12/11 04:57:41;;;;;;;26.67;6.57;;;9.60;99.90;;;;;;5113485;28;20222;-73
2023/12/11 05:00:08;;;;;;;21.77;6.33;;;9.60;99.90;;;;;;5095863;28;20184;-70
2023/12/11 05:02:34;;;;;;;21.38;5.78;;;9.60;99.90;;;;;;5096577;28;20200;-71
2023/12/11 05:04:59;;;;;;;17.10;5.80;;;9.60;99.90;;;;;;5096547;28;20175;-71
2023/12/11 05:07:25;;;;;;;13.60;5.47;;;9.60;99.90;;;;;;5096080;28;20223;-70
2023/12/11 05:09:51;;;;;;;15.13;6.10;;;9.70;99.90;;;;;;5114637;28;20177;-72
2023/12/11 05:12:17;;;;;;;18.47;5.37;;;9.70;99.90;;;;;;5096496;28;20184;-72
2023/12/11 05:14:43;;;;;;;23.13;6.33;;;9.60;99.90;;;;;;5114799;28;20534;-72
2023/12/11 05:17:09;;;;;;;15.97;6.13;;;9.50;99.90;;;;;;5114725;28;20192;-72
2023/12/11 05:19:35;;;;;;;12.00;5.63;;;9.40;99.90;;;;;;5096342;28;20268;-72
2023/12/11 05:22:02;;;;;;;19.43;6.10;;;9.30;99.90;;;;;;5114522;28;20200;-72
2023/12/11 05:24:28;;;;;;;20.60;6.10;;;9.20;99.90;;;;;;5114614;28;20172;-72
2023/12/11 05:26:57;;;;;;;19.13;6.43;;;9.10;99.90;;;;;;5096200;28;20282;-72
2023/12/11 05:29:23;;;;;;;23.10;6.30;;;9.10;99.90;;;;;;5114630;28;20177;-70
2023/12/11 05:31:48;;;;;;;17.73;5.82;;;9.00;99.90;;;;;;5115151;28;20233;-71
2023/12/11 05:34:14;;;;;;;24.07;7.40;;;9.00;99.90;;;;;;5114648;28;20180;-71
2023/12/11 05:36:40;;;;;;;23.63;7.20;;;9.00;99.90;;;;;;5113940;28;20259;-69
2023/12/11 05:39:09;;;;;;;21.20;6.73;;;8.90;99.90;;;;;;5114213;28;20280;-71
2023/12/11 05:41:35;;;;;;;16.63;5.53;;;8.90;99.90;;;;;;5095730;28;20204;-71
2023/12/11 05:44:01;;;;;;;17.63;5.43;;;8.80;99.90;;;;;;5114177;28;20164;-71
2023/12/11 05:46:26;;;;;;;18.30;5.53;;;8.80;99.90;;;;;;5113899;28;20208;-68
2023/12/11 05:48:52;;;;;;;13.07;5.60;;;8.70;99.90;;;;;;5114084;28;20191;-71
2023/12/11 05:51:18;;;;;;;17.93;6.80;;;8.70;99.90;;;;;;5113346;28;20176;-71
2023/12/11 05:53:44;;;;;;;19.37;5.57;;;8.70;99.90;;;;;;5114127;28;20183;-72
2023/12/11 05:56:10;;;;;;;16.90;6.07;;;8.60;99.90;;;;;;5114203;28;20179;-70
2023/12/11 05:58:36;;;;;;;20.17;5.67;;;8.50;99.90;;;;;;5095524;28;20675;-70
2023/12/11 06:01:02;;;;;;;19.27;6.20;;;8.50;99.90;;;;;;5113805;28;20199;-70
2023/12/11 06:03:28;;;;;;;8.97;5.13;;;8.40;99.90;;;;;;5113850;28;20608;-71
2023/12/11 06:05:57;;;;;;;11.50;4.97;;;8.30;99.90;;;;;;5113822;28;20161;-70
2023/12/11 06:08:27;;;;;;;9.63;4.50;;;8.30;99.90;;;;;;5113743;28;20249;-67
2023/12/11 06:10:53;;;;;;;8.17;4.50;;;8.30;99.90;;;;;;5114278;28;20237;-70
2023/12/11 06:13:19;;;;;;;14.23;5.63;;;8.30;99.90;;;;;;5095972;28;20267;-70
2023/12/11 06:15:45;;;;;;;15.57;4.93;;;8.30;99.90;;;;;;5114169;28;20172;-71
2023/12/11 06:18:11;;;;;;;10.63;5.23;;;8.30;99.90;;;;;;5095389;28;20204;-70
2023/12/11 06:20:37;;;;;;;16.33;5.70;;;8.30;99.90;;;;;;5113763;28;20200;-71
2023/12/11 06:23:03;;;;;;;16.77;5.70;;;8.30;99.90;;;;;;5113389;28;20177;-71
2023/12/11 06:25:29;;;;;;;21.87;6.47;;;8.20;99.90;;;;;;5113866;28;20220;-70
2023/12/11 06:27:54;;;;;;;16.77;5.93;;;8.30;99.90;;;;;;5113665;28;20275;-71
2023/12/11 06:30:20;;;;;;;16.37;5.70;;;8.30;99.90;;;;;;5095285;28;20173;-71
2023/12/11 06:32:46;;;;;;;23.87;7.00;;;8.30;99.90;;;;;;5095330;28;20259;-70
2023/12/11 06:35:13;;;;;;;16.17;6.27;;;8.40;99.90;;;;;;5095234;28;20263;-70
2023/12/11 06:37:38;;;;;;;19.63;6.97;;;8.40;99.90;;;;;;5094979;28;20196;-70
2023/12/11 06:40:05;;;;;;;20.37;7.13;;;8.50;99.90;;;;;;5095437;28;20273;-71
2023/12/11 06:42:37;;;;;;;19.97;5.93;;;8.50;99.90;;;;;;5113901;28;20196;-71
2023/12/11 06:45:03;;;;;;;22.97;6.60;;;8.50;99.90;;;;;;5095167;28;20229;-71
2023/12/11 06:47:29;;;;;;;29.03;7.17;;;8.60;99.90;;;;;;5114164;28;20249;-70
2023/12/11 06:49:55;;;;;;;28.33;6.50;;;8.70;99.90;;;;;;5113613;28;20577;-71
2023/12/11 06:52:21;;;;;;;27.10;7.47;;;8.80;99.90;;;;;;5094674;28;20181;-70
2023/12/11 06:54:47;;;;;;;25.23;6.67;;;8.80;99.90;;;;;;5095036;28;20181;-71
2023/12/11 06:57:13;;;;;;;20.17;6.47;;;8.80;99.90;;;;;;5095160;28;20249;-71
2023/12/11 06:59:39;;;;;;;19.70;6.70;;;8.80;99.90;;;;;;5113511;28;20631;-72
2023/12/11 07:02:05;;;;;;;20.87;7.47;;;8.80;99.90;;;;;;5094859;28;20204;-70
2023/12/11 07:04:31;;;;;;;23.20;6.70;;;8.90;99.90;;;;;;5117424;28;20638;-71
2023/12/11 07:06:57;;;;;;;18.43;6.63;;;8.90;99.90;;;;;;5116982;28;20233;-71
2023/12/11 07:09:23;;;;;;;18.77;6.80;;;8.90;99.90;;;;;;5098922;28;20192;-72
2023/12/11 07:11:49;;;;;;;17.73;5.90;;;9.00;99.90;;;;;;5098741;28;20184;-72
2023/12/11 07:14:15;;;;;;;12.03;5.83;;;9.00;99.90;;;;;;5098734;28;20176;-72
2023/12/11 07:16:40;;;;;;;17.50;5.93;;;8.90;99.90;;;;;;5098460;28;20533;-72
2023/12/11 07:19:07;;;;;;;20.47;7.10;;;8.90;99.90;;;;;;5117005;28;20157;-71
2023/12/11 07:21:33;;;;;;;18.27;6.27;;;8.90;99.90;;;;;;5098360;28;20200;-72
2023/12/11 07:23:59;;;;;;;19.03;6.10;;;8.90;99.90;;;;;;5116787;28;20238;-71
2023/12/11 07:26:24;;;;;;;18.63;5.93;;;9.00;99.90;;;;;;5117435;28;20243;-71
2023/12/11 07:28:52;;;;;;;20.57;6.37;;;9.00;99.90;;;;;;5116965;28;20185;-70
2023/12/11 07:31:18;;;;;;;12.07;5.47;;;9.00;99.90;;;;;;5098649;28;20172;-71
2023/12/11 07:33:44;;;;;;;14.57;5.93;;;9.10;99.90;;;;;;5117205;28;20209;-69
2023/12/11 07:36:10;;;;;;;21.57;6.33;;;9.00;99.90;;;;;;5117219;28;20165;-71
2023/12/11 07:38:36;;;;;;;15.47;6.23;;;9.10;99.90;;;;;;5097686;28;20216;-69
2023/12/11 07:41:03;;;;;;;20.63;6.43;;;9.10;99.90;;;;;;5117000;28;20221;-71
2023/12/11 07:43:29;;;;;;;23.80;7.23;;;9.10;99.90;;;;;;5098222;28;20172;-71
2023/12/11 07:45:55;;;;;;;18.00;6.87;;;9.10;99.90;;;;;;5116448;28;20181;-71
2023/12/11 07:48:20;;;;;;;22.10;6.27;;;9.10;99.90;;;;;;5116075;28;20180;-71
2023/12/11 07:50:46;;;;;;;20.63;6.43;;;9.10;99.90;;;;;;5116547;28;20173;-70
2023/12/11 07:53:13;;;;;;;16.37;6.63;;;9.10;99.90;;;;;;5116053;28;20160;-71
2023/12/11 07:55:38;;;;;;;14.50;6.47;;;9.20;99.90;;;;;;5098061;28;20176;-71
2023/12/11 07:58:04;;;;;;;22.67;7.20;;;9.20;99.90;;;;;;5097917;28;20283;-70
2023/12/11 08:00:31;;;;;;;11.97;5.33;;;9.20;99.90;;;;;;5116121;28;20160;-71
2023/12/11 08:02:57;;;;;;;15.53;5.90;;;9.20;99.90;;;;;;5097794;28;20180;-70
2023/12/11 08:05:22;;;;;;;20.07;6.23;;;9.20;99.90;;;;;;5116517;28;20639;-69
2023/12/11 08:07:48;;;;;;;20.10;7.27;;;9.20;99.90;;;;;;5097477;28;20283;-71
2023/12/11 08:10:16;;;;;;;28.53;7.47;;;9.20;99.90;;;;;;5116003;28;20180;-72
2023/12/11 08:12:42;;;;;;;15.27;5.67;;;9.10;99.90;;;;;;5116323;28;20172;-72
2023/12/11 08:15:08;;;;;;;19.40;6.07;;;9.10;99.90;;;;;;5116127;28;20218;-72
2023/12/11 08:17:34;;;;;;;17.63;6.40;;;9.10;99.90;;;;;;5116684;28;20235;-72
2023/12/11 08:19:59;;;;;;;16.87;6.33;;;9.00;99.90;;;;;;5116068;28;20211;-72
2023/12/11 08:22:26;;;;;;;18.77;6.33;;;9.00;99.90;;;;;;5115420;28;20196;-71
2023/12/11 08:24:52;;;;;;;19.90;6.90;;;9.00;99.90;;;;;;5116303;28;20179;-72
2023/12/11 08:27:18;;;;;;;24.30;6.83;;;8.90;99.90;;;;;;5115843;28;20567;-71
2023/12/11 08:29:46;;;;;;;15.90;6.63;;;8.90;99.90;;;;;;5115978;28;20179;-70
2023/12/11 08:32:12;;;;;;;23.60;7.07;;;8.90;99.90;;;;;;5097519;28;20658;-70
2023/12/11 08:34:38;;;;;;;27.87;7.50;;;8.90;99.90;;;;;;5115759;28;20549;-70
2023/12/11 08:37:04;;;;;;;13.83;6.17;;;8.80;99.90;;;;;;5115607;28;20224;-70
2023/12/11 08:39:30;;;;;;;18.50;7.03;;;8.80;99.90;;;;;;5115675;28;20728;-70
2023/12/11 08:41:56;;;;;;;16.93;5.97;;;8.80;99.90;;;;;;5097191;28;20583;-70
2023/12/11 08:44:22;;;;;;;23.03;6.60;;;8.80;99.90;;;;;;5097101;28;20169;-71
2023/12/11 08:46:48;;;;;;;27.67;7.40;;;8.80;99.90;;;;;;5096821;28;20673;-71
2023/12/11 08:49:13;;;;;;;18.57;6.27;;;8.80;99.90;;;;;;5115162;28;20176;-71
2023/12/11 08:51:40;;;;;;;21.33;6.60;;;8.80;99.90;;;;;;5096539;28;20191;-69
2023/12/11 08:54:05;;;;;;;21.90;6.63;;;8.80;99.90;;;;;;5096807;28;20235;-69
2023/12/11 08:56:31;;;;;;;24.30;6.40;;;8.80;99.90;;;;;;5096696;28;20176;-70
2023/12/11 08:58:57;;;;;;;23.77;6.83;;;8.80;99.90;;;;;;5115016;28;20191;-70
2023/12/11 09:01:23;;;;;;;18.07;6.57;;;8.80;99.90;;;;;;5096616;28;20612;-71
2023/12/11 09:03:49;;;;;;;24.88;7.53;;;8.80;99.90;;;;;;5114827;28;20636;-70
2023/12/11 09:06:14;;;;;;;18.60;6.40;;;8.80;99.90;;;;;;5096736;28;20183;-70
2023/12/11 09:08:40;;;;;;;23.30;6.57;;;8.80;99.90;;;;;;5114636;28;20192;-69
2023/12/11 09:11:06;;;;;;;19.67;5.93;;;8.80;99.90;;;;;;5115182;28;20176;-71
2023/12/11 09:13:32;;;;;;;12.80;5.77;;;8.90;99.90;;;;;;5115173;28;20175;-70
2023/12/11 09:15:58;;;;;;;19.77;5.90;;;8.90;99.90;;;;;;5096493;28;20711;-70
2023/12/11 09:18:24;;;;;;;11.97;5.13;;;9.00;99.90;;;;;;5114891;28;20544;-71
2023/12/11 09:20:51;;;;;;;13.57;6.10;;;9.00;99.90;;;;;;5115081;28;20321;-70
2023/12/11 09:23:16;;;;;;;22.38;6.13;;;9.00;99.90;;;;;;5114303;28;20165;-69
2023/12/11 09:25:43;;;;;;;17.37;6.00;;;9.00;99.90;;;;;;5113903;28;20183;-69
2023/12/11 09:28:09;;;;;;;14.67;5.43;;;8.90;99.90;;;;;;5096108;28;20203;-69
2023/12/11 09:30:35;;;;;;;15.00;5.70;;;9.00;99.90;;;;;;5114931;28;20255;-71
2023/12/11 09:33:01;;;;;;;9.77;5.40;;;9.00;99.90;;;;;;5096063;28;20187;-71
2023/12/11 09:35:27;;;;;;;13.90;5.80;;;9.10;99.90;;;;;;5114290;28;20164;-70
2023/12/11 09:37:53;;;;;;;14.33;5.50;;;9.00;99.90;;;;;;5113895;28;20279;-69
2023/12/11 09:40:19;;;;;;;17.88;6.18;;;9.10;99.90;;;;;;5114145;28;20239;-70
2023/12/11 09:42:46;;;;;;;16.03;6.37;;;9.10;99.90;;;;;;5095994;28;20200;-70
2023/12/11 09:45:15;;;;;;;12.95;5.45;;;9.20;99.90;;;;;;5114005;28;20647;-70
2023/12/11 09:47:47;;;;;;;18.75;5.45;;;9.20;99.90;;;;;;5095862;28;20295;-70
2023/12/11 09:50:13;;;;;;;14.17;5.50;;;9.30;99.90;;;;;;5114294;28;20172;-69
2023/12/11 09:52:41;;;;;;;9.82;5.07;;;9.40;99.90;;;;;;5095574;28;20271;-71
2023/12/11 09:55:07;;;;;;;13.07;5.40;;;9.40;99.90;;;;;;5096072;28;20537;-70
2023/12/11 09:57:34;;;;;;;18.65;5.60;;;9.40;99.90;;;;;;5113959;28;20200;-69
2023/12/11 10:00:00;;;;;;;15.60;6.30;;;9.40;99.90;;;;;;5114109;28;20172;-70
2023/12/11 10:02:27;;;;;;;13.85;5.78;;;9.40;99.90;;;;;;5115957;28;20248;-71
2023/12/11 10:05:10;;;;;;;14.93;5.35;;;9.40;99.90;;;;;;5119563;28;20176;-71
2023/12/11 10:07:45;;;;;;;19.40;6.30;;;9.30;99.90;;;;;;5113940;28;20222;-70
2023/12/11 10:10:20;;;;;;;11.10;5.87;;;9.30;99.90;;;;;;5114097;28;20180;-70
2023/12/11 10:12:46;;;;;;;11.00;5.37;;;9.30;99.90;;;;;;5113934;28;20171;-71
2023/12/11 10:15:19;;;;;;;20.07;6.63;;;9.30;99.90;;;;;;5113776;28;20168;-70
2023/12/11 10:17:45;;;;;;;17.55;6.28;;;9.30;99.90;;;;;;5113942;28;20345;-69
2023/12/11 10:20:17;;;;;;;10.07;5.43;;;9.40;99.90;;;;;;5114029;28;20646;-70
2023/12/11 10:22:43;;;;;;;19.90;5.57;;;9.40;99.90;;;;;;5113412;28;20569;-69
2023/12/11 10:25:09;;;;;;;12.37;5.00;;;9.40;99.90;;;;;;5095520;28;20252;-71
2023/12/11 10:27:34;;;;;;;9.30;5.60;;;9.30;99.90;;;;;;5113716;28;20192;-71
2023/12/11 10:30:11;;;;;;;10.88;5.40;;;9.40;99.90;;;;;;5113626;28;20173;-71
2023/12/11 10:32:37;;;;;;;12.82;5.40;;;9.40;99.90;;;;;;5095502;28;20183;-70
2023/12/11 10:35:05;;;;;;;10.70;5.10;;;9.40;99.90;;;;;;5113816;28;20520;-69
2023/12/11 10:37:31;;;;;;;9.23;5.03;;;9.40;99.90;;;;;;5113885;28;20206;-68
2023/12/11 10:39:58;;;;;;;14.67;5.47;;;9.40;99.90;;;;;;5099368;28;20220;-70
2023/12/11 10:42:25;;;;;;;9.33;4.67;;;9.30;99.90;;;;;;5099344;28;20200;-70
2023/12/11 10:44:51;;;;;;;9.57;5.23;;;9.30;99.90;;;;;;5117679;28;20176;-70
2023/12/11 10:47:18;;;;;;;13.97;5.27;;;9.20;99.90;;;;;;5099340;28;20203;-70
2023/12/11 10:49:44;;;;;;;10.68;5.07;;;9.20;99.90;;;;;;5099333;28;20267;-70
2023/12/11 10:52:11;;;;;;;10.75;5.20;;;9.20;99.90;;;;;;5099150;28;20245;-69
2023/12/11 10:54:38;;;;;;;12.48;4.97;;;9.20;99.90;;;;;;5117425;28;20176;-69
2023/12/11 10:57:07;;;;;;;10.95;5.28;;;9.30;99.90;;;;;;5099139;28;20294;-71
2023/12/11 10:59:35;;;;;;;11.90;5.60;;;9.30;99.90;;;;;;5117678;28;20191;-69
2023/12/11 11:02:03;;;;;;;10.23;5.50;;;9.30;99.90;;;;;;5117286;28;20244;-69
2023/12/11 11:04:33;;;;;;;15.02;5.47;;;9.30;99.90;;;;;;5117285;28;20663;-68
2023/12/11 11:07:15;;;;;;;10.52;5.78;;;9.30;99.90;;;;;;5117460;28;20197;-70
2023/12/11 11:09:49;;;;;;;10.50;5.50;;;9.30;99.90;;;;;;5117186;28;20183;-70
2023/12/11 11:12:35;;;;;;;15.05;6.13;;;9.40;99.90;;;;;;5117160;28;20285;-70
2023/12/11 11:15:01;;;;;;;14.45;6.10;;;9.40;99.90;;;;;;5118093;28;20169;-71
2023/12/11 11:17:58;;;;;;;12.75;5.88;;;9.40;99.90;;;;;;5117211;28;20203;-70
2023/12/11 11:20:25;;;;;;;14.07;5.75;;;9.40;99.90;;;;;;5116987;28;20187;-70
2023/12/11 11:22:51;;;;;;;8.10;6.20;;;9.30;99.90;;;;;;5098425;28;20208;-71
2023/12/11 11:25:50;;;;;;;13.73;6.38;;;9.30;99.90;;;;;;5116920;28;20297;-69
2023/12/11 11:28:42;;;;;;;11.88;6.65;;;9.20;99.90;;;;;;5098896;28;20574;-71
2023/12/11 11:31:09;;;;;;;12.47;6.40;;;9.20;99.90;;;;;;5116775;28;20233;-69
2023/12/11 11:33:46;;;;;;;12.47;6.57;;;9.20;99.90;;;;;;5117270;28;20183;-71
2023/12/11 11:36:16;;;;;;;11.73;6.55;;;9.20;99.90;;;;;;5116675;28;20180;-70
2023/12/11 11:39:05;;;;;;;11.20;6.17;;;9.20;99.90;;;;;;5098057;28;20255;-70
2023/12/11 11:41:32;;;;;;;11.07;5.60;;;9.10;99.90;;;;;;5117224;28;20223;-70
2023/12/11 11:44:08;;;;;;;15.67;6.70;;;9.10;99.90;;;;;;5116926;28;20180;-71
2023/12/11 11:46:57;;;;;;;20.17;7.13;;;9.00;99.90;;;;;;5116459;28;20212;-72
2023/12/11 11:49:35;;;;;;;10.20;6.43;;;9.00;99.90;;;;;;5097553;28;20175;-71
2023/12/11 11:52:11;;;;;;;13.73;6.97;;;8.90;99.90;;;;;;5098284;28;20168;-71
2023/12/11 11:54:38;;;;;;;16.30;6.43;;;8.90;99.90;;;;;;5098385;28;20530;-71
2023/12/11 11:57:06;;;;;;;9.03;6.03;;;8.90;99.90;;;;;;5116400;28;20199;-69
2023/12/11 11:59:41;;;;;;;11.40;6.00;;;8.90;99.90;;;;;;5117362;28;20180;-71
2023/12/11 12:02:07;;;;;;;12.30;6.00;;;8.90;99.90;;;;;;5098283;28;20230;-70
2023/12/11 12:04:34;;;;;;;10.87;6.03;;;9.00;99.90;;;;;;5116526;28;20185;-70
2023/12/11 12:07:05;;;;;;;13.27;5.53;;;9.00;99.90;;;;;;5098146;28;20196;-71
2023/12/11 12:09:33;;;;;;;11.43;6.47;;;9.00;99.90;;;;;;5115755;28;20187;-70
2023/12/11 12:12:00;;;;;;;9.43;5.57;;;9.00;99.90;;;;;;5097801;28;20177;-70
2023/12/11 12:14:26;;;;;;;12.03;5.63;;;9.10;99.90;;;;;;5116239;28;20534;-70
2023/12/11 12:16:53;;;;;;;11.03;5.23;;;9.00;99.90;;;;;;5097641;28;20752;-71
2023/12/11 12:19:33;;;;;;;11.73;5.03;;;9.10;99.90;;;;;;5115786;28;20266;-71
2023/12/11 12:22:01;;;;;;;14.80;5.80;;;9.00;99.90;;;;;;5115716;28;20548;-70
2023/12/11 12:24:27;;;;;;;10.93;5.00;;;9.00;99.90;;;;;;5115435;28;20176;-71
2023/12/11 12:27:07;;;;;;;8.33;5.20;;;9.00;99.90;;;;;;5115880;28;20748;-70
2023/12/11 12:29:36;;;;;;;10.07;5.70;;;8.90;99.90;;;;;;5115941;28;20182;-69
2023/12/11 12:32:03;;;;;;;11.00;5.55;;;8.90;99.90;;;;;;5115891;28;20169;-70
2023/12/11 12:34:32;;;;;;;8.60;5.17;;;8.90;99.90;;;;;;5097235;28;20189;-69
2023/12/11 12:37:01;;;;;;;7.80;5.03;;;8.90;99.90;;;;;;5097168;28;20200;-70
2023/12/11 12:39:27;;;;;;;10.20;5.37;;;8.80;99.90;;;;;;5115124;28;20237;-68
2023/12/11 12:41:53;;;;;;;12.10;5.70;;;8.80;99.90;;;;;;5097020;28;20200;-70
2023/12/11 12:44:18;;;;;;;14.13;5.90;;;8.80;99.90;;;;;;5097078;28;20176;-72